sensor_id;sensor_type;location;lat;lon;timestamp;P1;durP1;ratioP1;P2;durP2;ratioP2
19969;SDS011;10146;47.754;9.566;2023-04-05T00:00:57;6.80;;;5.47;;
19969;SDS011;10146;47.754;9.566;2023-04-05T00:03:23;6.05;;;5.45;;
19969;SDS011;10146;47.754;9.566;2023-04-05T00:05:49;6.13;;;5.53;;
19969;SDS011;10146;47.754;9.566;2023-04-05T00:08:15;5.75;;;5.13;;
19969;SDS011;10146;47.754;9.566;2023-04-05T00:10:51;6.43;;;5.15;;
19969;SDS011;10146;47.754;9.566;2023-04-05T00:13:16;6.70;;;5.20;;
19969;SDS011;10146;47.754;9.566;2023-04-05T00:15:42;5.95;;;5.35;;
19969;SDS011;10146;47.754;9.566;2023-04-05T00:18:08;6.03;;;4.95;;
19969;SDS011;10146;47.754;9.566;2023-04-05T00:20:46;6.57;;;5.53;;
19969;SDS011;10146;47.754;9.566;2023-04-05T00:23:13;6.88;;;5.82;;
19969;SDS011;10146;47.754;9.566;2023-04-05T00:25:40;5.93;;;5.18;;
19969;SDS011;10146;47.754;9.566;2023-04-05T00:28:06;7.28;;;5.65;;
19969;SDS011;10146;47.754;9.566;2023-04-05T00:30:32;6.70;;;5.18;;
19969;SDS011;10146;47.754;9.566;2023-04-05T00:32:57;6.68;;;5.78;;
19969;SDS011;10146;47.754;9.566;2023-04-05T00:35:25;7.18;;;5.40;;
19969;SDS011;10146;47.754;9.566;2023-04-05T00:37:51;6.95;;;5.50;;
19969;SDS011;10146;47.754;9.566;2023-04-05T00:40:17;5.88;;;5.35;;
19969;SDS011;10146;47.754;9.566;2023-04-05T00:42:43;5.30;;;4.80;;
19969;SDS011;10146;47.754;9.566;2023-04-05T00:45:08;5.95;;;5.43;;
19969;SDS011;10146;47.754;9.566;2023-04-05T00:47:34;5.63;;;5.10;;
19969;SDS011;10146;47.754;9.566;2023-04-05T00:50:00;5.82;;;5.18;;
19969;SDS011;10146;47.754;9.566;2023-04-05T00:52:27;7.30;;;5.22;;
19969;SDS011;10146;47.754;9.566;2023-04-05T00:54:54;7.72;;;5.80;;
19969;SDS011;10146;47.754;9.566;2023-04-05T00:57:20;6.05;;;5.30;;
19969;SDS011;10146;47.754;9.566;2023-04-05T00:59:49;6.82;;;5.50;;
19969;SDS011;10146;47.754;9.566;2023-04-05T01:02:27;5.25;;;4.75;;
19969;SDS011;10146;47.754;9.566;2023-04-05T01:04:58;7.88;;;5.75;;
19969;SDS011;10146;47.754;9.566;2023-04-05T01:07:30;6.20;;;5.60;;
19969;SDS011;10146;47.754;9.566;2023-04-05T01:10:07;6.20;;;5.60;;
19969;SDS011;10146;47.754;9.566;2023-04-05T01:12:37;5.30;;;4.80;;
19969;SDS011;10146;47.754;9.566;2023-04-05T01:15:03;6.97;;;5.60;;
19969;SDS011;10146;47.754;9.566;2023-04-05T01:17:30;5.68;;;5.18;;
19969;SDS011;10146;47.754;9.566;2023-04-05T01:20:02;6.43;;;5.60;;
19969;SDS011;10146;47.754;9.566;2023-04-05T01:25:36;6.05;;;5.43;;
19969;SDS011;10146;47.754;9.566;2023-04-05T01:34:07;5.88;;;5.28;;
19969;SDS011;10146;47.754;9.566;2023-04-05T01:36:56;6.72;;;5.55;;
19969;SDS011;10146;47.754;9.566;2023-04-05T01:39:27;5.70;;;5.20;;
19969;SDS011;10146;47.754;9.566;2023-04-05T01:41:58;7.60;;;5.88;;
19969;SDS011;10146;47.754;9.566;2023-04-05T01:44:25;6.45;;;5.85;;
19969;SDS011;10146;47.754;9.566;2023-04-05T01:46:51;6.60;;;5.93;;
19969;SDS011;10146;47.754;9.566;2023-04-05T01:49:17;6.28;;;5.68;;
19969;SDS011;10146;47.754;9.566;2023-04-05T01:51:42;7.38;;;5.65;;
19969;SDS011;10146;47.754;9.566;2023-04-05T01:54:08;6.70;;;5.55;;
19969;SDS011;10146;47.754;9.566;2023-04-05T01:56:34;7.75;;;5.65;;
19969;SDS011;10146;47.754;9.566;2023-04-05T01:58:59;6.43;;;5.82;;
19969;SDS011;10146;47.754;9.566;2023-04-05T02:01:25;6.80;;;6.05;;
19969;SDS011;10146;47.754;9.566;2023-04-05T02:03:51;6.20;;;5.63;;
19969;SDS011;10146;47.754;9.566;2023-04-05T02:06:16;7.13;;;5.82;;
19969;SDS011;10146;47.754;9.566;2023-04-05T02:08:42;6.53;;;5.93;;
19969;SDS011;10146;47.754;9.566;2023-04-05T02:11:07;6.93;;;5.68;;
19969;SDS011;10146;47.754;9.566;2023-04-05T02:13:33;7.18;;;6.15;;
19969;SDS011;10146;47.754;9.566;2023-04-05T02:15:58;6.25;;;5.65;;
19969;SDS011;10146;47.754;9.566;2023-04-05T02:18:24;8.10;;;5.90;;
19969;SDS011;10146;47.754;9.566;2023-04-05T02:20:59;6.32;;;5.80;;
19969;SDS011;10146;47.754;9.566;2023-04-05T02:23:30;6.60;;;6.00;;
19969;SDS011;10146;47.754;9.566;2023-04-05T02:25:57;6.60;;;5.90;;
19969;SDS011;10146;47.754;9.566;2023-04-05T02:28:22;7.40;;;6.10;;
19969;SDS011;10146;47.754;9.566;2023-04-05T02:30:48;7.05;;;6.07;;
19969;SDS011;10146;47.754;9.566;2023-04-05T02:33:14;6.90;;;5.90;;
19969;SDS011;10146;47.754;9.566;2023-04-05T02:35:40;7.00;;;6.28;;
19969;SDS011;10146;47.754;9.566;2023-04-05T02:38:06;6.55;;;5.63;;
19969;SDS011;10146;47.754;9.566;2023-04-05T02:40:31;7.00;;;6.30;;
19969;SDS011;10146;47.754;9.566;2023-04-05T02:42:58;6.78;;;6.10;;
19969;SDS011;10146;47.754;9.566;2023-04-05T02:45:23;6.85;;;6.15;;
19969;SDS011;10146;47.754;9.566;2023-04-05T02:47:51;6.60;;;5.90;;
19969;SDS011;10146;47.754;9.566;2023-04-05T02:50:17;6.55;;;5.95;;
19969;SDS011;10146;47.754;9.566;2023-04-05T02:52:44;7.35;;;6.45;;
19969;SDS011;10146;47.754;9.566;2023-04-05T02:55:11;6.68;;;6.07;;
19969;SDS011;10146;47.754;9.566;2023-04-05T02:57:37;6.82;;;6.15;;
19969;SDS011;10146;47.754;9.566;2023-04-05T03:00:03;8.07;;;6.68;;
19969;SDS011;10146;47.754;9.566;2023-04-05T03:02:29;6.55;;;5.85;;
19969;SDS011;10146;47.754;9.566;2023-04-05T03:04:55;6.85;;;6.15;;
19969;SDS011;10146;47.754;9.566;2023-04-05T03:07:21;7.07;;;6.47;;
19969;SDS011;10146;47.754;9.566;2023-04-05T03:09:49;8.18;;;6.18;;
19969;SDS011;10146;47.754;9.566;2023-04-05T03:12:15;7.68;;;6.28;;
19969;SDS011;10146;47.754;9.566;2023-04-05T03:14:41;7.00;;;6.30;;
19969;SDS011;10146;47.754;9.566;2023-04-05T03:17:06;7.25;;;6.60;;
19969;SDS011;10146;47.754;9.566;2023-04-05T03:19:32;7.70;;;6.18;;
19969;SDS011;10146;47.754;9.566;2023-04-05T03:21:59;7.45;;;6.45;;
19969;SDS011;10146;47.754;9.566;2023-04-05T03:24:25;7.32;;;6.57;;
19969;SDS011;10146;47.754;9.566;2023-04-05T03:26:51;7.00;;;6.35;;
19969;SDS011;10146;47.754;9.566;2023-04-05T03:29:17;6.60;;;6.00;;
19969;SDS011;10146;47.754;9.566;2023-04-05T03:31:43;8.25;;;6.82;;
19969;SDS011;10146;47.754;9.566;2023-04-05T03:34:09;8.95;;;6.78;;
19969;SDS011;10146;47.754;9.566;2023-04-05T03:36:35;8.60;;;6.63;;
19969;SDS011;10146;47.754;9.566;2023-04-05T03:39:09;7.28;;;6.57;;
19969;SDS011;10146;47.754;9.566;2023-04-05T03:41:36;7.40;;;6.70;;
19969;SDS011;10146;47.754;9.566;2023-04-05T03:44:02;7.03;;;6.32;;
19969;SDS011;10146;47.754;9.566;2023-04-05T03:46:28;8.20;;;6.80;;
19969;SDS011;10146;47.754;9.566;2023-04-05T03:48:54;8.60;;;6.68;;
19969;SDS011;10146;47.754;9.566;2023-04-05T03:51:21;7.38;;;6.55;;
19969;SDS011;10146;47.754;9.566;2023-04-05T03:53:46;7.25;;;6.55;;
19969;SDS011;10146;47.754;9.566;2023-04-05T03:56:13;7.43;;;6.72;;
19969;SDS011;10146;47.754;9.566;2023-04-05T03:58:39;7.63;;;6.57;;
19969;SDS011;10146;47.754;9.566;2023-04-05T04:01:05;7.68;;;6.82;;
19969;SDS011;10146;47.754;9.566;2023-04-05T04:03:31;8.07;;;6.25;;
19969;SDS011;10146;47.754;9.566;2023-04-05T04:05:56;7.35;;;6.65;;
19969;SDS011;10146;47.754;9.566;2023-04-05T04:08:22;7.80;;;6.72;;
19969;SDS011;10146;47.754;9.566;2023-04-05T04:10:48;8.18;;;7.38;;
19969;SDS011;10146;47.754;9.566;2023-04-05T04:13:14;7.38;;;6.65;;
19969;SDS011;10146;47.754;9.566;2023-04-05T04:15:43;7.40;;;6.53;;
19969;SDS011;10146;47.754;9.566;2023-04-05T04:18:09;7.72;;;6.80;;
19969;SDS011;10146;47.754;9.566;2023-04-05T04:20:36;7.70;;;7.03;;
19969;SDS011;10146;47.754;9.566;2023-04-05T04:23:04;7.65;;;6.95;;
19969;SDS011;10146;47.754;9.566;2023-04-05T04:25:34;7.35;;;6.65;;
19969;SDS011;10146;47.754;9.566;2023-04-05T04:28:00;8.10;;;6.93;;
19969;SDS011;10146;47.754;9.566;2023-04-05T04:30:27;7.80;;;7.10;;
19969;SDS011;10146;47.754;9.566;2023-04-05T04:32:53;7.95;;;6.63;;
19969;SDS011;10146;47.754;9.566;2023-04-05T04:35:28;9.23;;;7.43;;
19969;SDS011;10146;47.754;9.566;2023-04-05T04:38:02;8.07;;;7.25;;
19969;SDS011;10146;47.754;9.566;2023-04-05T04:43:04;7.68;;;6.97;;
19969;SDS011;10146;47.754;9.566;2023-04-05T04:45:30;8.90;;;8.00;;
19969;SDS011;10146;47.754;9.566;2023-04-05T04:48:01;8.32;;;6.72;;
19969;SDS011;10146;47.754;9.566;2023-04-05T04:50:29;7.45;;;6.75;;
19969;SDS011;10146;47.754;9.566;2023-04-05T04:52:57;10.07;;;7.63;;
19969;SDS011;10146;47.754;9.566;2023-04-05T04:55:23;8.23;;;7.32;;
19969;SDS011;10146;47.754;9.566;2023-04-05T04:57:53;9.48;;;7.47;;
19969;SDS011;10146;47.754;9.566;2023-04-05T05:00:20;8.13;;;7.32;;
19969;SDS011;10146;47.754;9.566;2023-04-05T05:02:47;7.63;;;6.90;;
19969;SDS011;10146;47.754;9.566;2023-04-05T05:05:14;7.65;;;6.95;;
19969;SDS011;10146;47.754;9.566;2023-04-05T05:07:40;8.30;;;7.22;;
19969;SDS011;10146;47.754;9.566;2023-04-05T05:10:06;8.18;;;7.35;;
19969;SDS011;10146;47.754;9.566;2023-04-05T05:12:33;8.00;;;7.10;;
19969;SDS011;10146;47.754;9.566;2023-04-05T05:14:59;7.75;;;7.05;;
19969;SDS011;10146;47.754;9.566;2023-04-05T05:17:25;7.80;;;7.00;;
19969;SDS011;10146;47.754;9.566;2023-04-05T05:19:50;7.75;;;6.82;;
19969;SDS011;10146;47.754;9.566;2023-04-05T05:22:16;7.65;;;6.88;;
19969;SDS011;10146;47.754;9.566;2023-04-05T05:24:43;7.88;;;7.07;;
19969;SDS011;10146;47.754;9.566;2023-04-05T05:27:09;8.68;;;7.60;;
19969;SDS011;10146;47.754;9.566;2023-04-05T05:29:34;10.00;;;7.20;;
19969;SDS011;10146;47.754;9.566;2023-04-05T05:32:00;7.22;;;6.53;;
19969;SDS011;10146;47.754;9.566;2023-04-05T05:34:26;8.07;;;7.25;;
19969;SDS011;10146;47.754;9.566;2023-04-05T05:36:52;7.20;;;6.50;;
19969;SDS011;10146;47.754;9.566;2023-04-05T05:39:20;8.32;;;6.97;;
19969;SDS011;10146;47.754;9.566;2023-04-05T05:41:47;8.88;;;6.75;;
19969;SDS011;10146;47.754;9.566;2023-04-05T05:44:13;7.65;;;6.93;;
19969;SDS011;10146;47.754;9.566;2023-04-05T05:46:39;9.18;;;8.00;;
19969;SDS011;10146;47.754;9.566;2023-04-05T05:49:05;7.88;;;7.13;;
19969;SDS011;10146;47.754;9.566;2023-04-05T05:51:30;8.20;;;7.20;;
19969;SDS011;10146;47.754;9.566;2023-04-05T05:53:59;12.00;;;9.27;;
19969;SDS011;10146;47.754;9.566;2023-04-05T05:56:25;8.00;;;6.93;;
19969;SDS011;10146;47.754;9.566;2023-04-05T05:58:51;8.48;;;7.40;;
19969;SDS011;10146;47.754;9.566;2023-04-05T06:01:17;8.13;;;7.30;;
19969;SDS011;10146;47.754;9.566;2023-04-05T06:03:47;8.10;;;7.30;;
19969;SDS011;10146;47.754;9.566;2023-04-05T06:06:13;7.97;;;7.07;;
19969;SDS011;10146;47.754;9.566;2023-04-05T06:08:38;8.00;;;7.20;;
19969;SDS011;10146;47.754;9.566;2023-04-05T06:11:04;8.10;;;7.30;;
19969;SDS011;10146;47.754;9.566;2023-04-05T06:13:30;7.90;;;7.10;;
19969;SDS011;10146;47.754;9.566;2023-04-05T06:15:56;7.78;;;6.95;;
19969;SDS011;10146;47.754;9.566;2023-04-05T06:18:21;7.35;;;6.65;;
19969;SDS011;10146;47.754;9.566;2023-04-05T06:20:47;8.43;;;7.30;;
19969;SDS011;10146;47.754;9.566;2023-04-05T06:23:12;8.30;;;7.50;;
19969;SDS011;10146;47.754;9.566;2023-04-05T06:25:38;9.35;;;7.40;;
19969;SDS011;10146;47.754;9.566;2023-04-05T06:28:05;7.68;;;6.90;;
19969;SDS011;10146;47.754;9.566;2023-04-05T06:30:31;9.60;;;7.97;;
19969;SDS011;10146;47.754;9.566;2023-04-05T06:32:58;8.13;;;7.35;;
19969;SDS011;10146;47.754;9.566;2023-04-05T06:35:24;7.80;;;7.00;;
19969;SDS011;10146;47.754;9.566;2023-04-05T06:37:50;7.78;;;7.00;;
19969;SDS011;10146;47.754;9.566;2023-04-05T06:40:16;7.82;;;7.03;;
19969;SDS011;10146;47.754;9.566;2023-04-05T06:42:42;7.97;;;7.00;;
19969;SDS011;10146;47.754;9.566;2023-04-05T06:45:08;8.13;;;7.30;;
19969;SDS011;10146;47.754;9.566;2023-04-05T06:47:35;8.45;;;7.25;;
19969;SDS011;10146;47.754;9.566;2023-04-05T06:50:02;7.88;;;7.07;;
19969;SDS011;10146;47.754;9.566;2023-04-05T06:52:32;9.57;;;7.07;;
19969;SDS011;10146;47.754;9.566;2023-04-05T06:54:58;8.23;;;7.05;;
19969;SDS011;10146;47.754;9.566;2023-04-05T06:57:24;8.32;;;7.18;;
19969;SDS011;10146;47.754;9.566;2023-04-05T06:59:51;9.98;;;6.97;;
19969;SDS011;10146;47.754;9.566;2023-04-05T07:02:17;8.48;;;6.97;;
19969;SDS011;10146;47.754;9.566;2023-04-05T07:04:43;8.90;;;7.18;;
19969;SDS011;10146;47.754;9.566;2023-04-05T07:07:08;7.88;;;6.47;;
19969;SDS011;10146;47.754;9.566;2023-04-05T07:09:35;8.63;;;6.95;;
19969;SDS011;10146;47.754;9.566;2023-04-05T07:12:01;7.93;;;7.00;;
19969;SDS011;10146;47.754;9.566;2023-04-05T07:14:32;7.05;;;6.30;;
19969;SDS011;10146;47.754;9.566;2023-04-05T07:16:58;7.18;;;6.47;;
19969;SDS011;10146;47.754;9.566;2023-04-05T07:19:24;7.72;;;6.40;;
19969;SDS011;10146;47.754;9.566;2023-04-05T07:21:50;8.35;;;7.00;;
19969;SDS011;10146;47.754;9.566;2023-04-05T07:24:16;9.02;;;6.78;;
19969;SDS011;10146;47.754;9.566;2023-04-05T07:26:41;10.25;;;7.30;;
19969;SDS011;10146;47.754;9.566;2023-04-05T07:29:08;8.95;;;6.75;;
19969;SDS011;10146;47.754;9.566;2023-04-05T07:31:34;9.75;;;7.63;;
19969;SDS011;10146;47.754;9.566;2023-04-05T07:34:00;8.10;;;7.30;;
19969;SDS011;10146;47.754;9.566;2023-04-05T07:36:26;8.13;;;7.25;;
19969;SDS011;10146;47.754;9.566;2023-04-05T07:38:54;10.38;;;7.47;;
19969;SDS011;10146;47.754;9.566;2023-04-05T07:41:23;7.88;;;6.57;;
19969;SDS011;10146;47.754;9.566;2023-04-05T07:43:49;7.63;;;6.80;;
19969;SDS011;10146;47.754;9.566;2023-04-05T07:46:15;8.63;;;6.80;;
19969;SDS011;10146;47.754;9.566;2023-04-05T07:48:41;9.52;;;7.45;;
19969;SDS011;10146;47.754;9.566;2023-04-05T07:51:07;7.82;;;7.03;;
19969;SDS011;10146;47.754;9.566;2023-04-05T07:53:34;7.97;;;7.18;;
19969;SDS011;10146;47.754;9.566;2023-04-05T07:56:04;7.22;;;6.53;;
19969;SDS011;10146;47.754;9.566;2023-04-05T07:58:31;7.40;;;6.70;;
19969;SDS011;10146;47.754;9.566;2023-04-05T08:01:00;7.72;;;6.97;;
19969;SDS011;10146;47.754;9.566;2023-04-05T08:03:28;8.32;;;7.38;;
19969;SDS011;10146;47.754;9.566;2023-04-05T08:05:54;7.50;;;6.68;;
19969;SDS011;10146;47.754;9.566;2023-04-05T08:08:20;7.97;;;7.13;;
19969;SDS011;10146;47.754;9.566;2023-04-05T08:10:46;8.30;;;6.63;;
19969;SDS011;10146;47.754;9.566;2023-04-05T08:13:12;7.10;;;6.40;;
19969;SDS011;10146;47.754;9.566;2023-04-05T08:15:38;8.20;;;6.95;;
19969;SDS011;10146;47.754;9.566;2023-04-05T08:18:04;7.47;;;6.68;;
19969;SDS011;10146;47.754;9.566;2023-04-05T08:20:30;7.60;;;6.78;;
19969;SDS011;10146;47.754;9.566;2023-04-05T08:22:56;7.43;;;6.70;;
19969;SDS011;10146;47.754;9.566;2023-04-05T08:25:22;7.53;;;6.75;;
19969;SDS011;10146;47.754;9.566;2023-04-05T08:27:47;6.50;;;5.88;;
19969;SDS011;10146;47.754;9.566;2023-04-05T08:30:13;7.07;;;6.25;;
19969;SDS011;10146;47.754;9.566;2023-04-05T08:32:40;7.38;;;5.60;;
19969;SDS011;10146;47.754;9.566;2023-04-05T08:35:06;6.65;;;6.00;;
19969;SDS011;10146;47.754;9.566;2023-04-05T08:37:34;6.50;;;5.88;;
19969;SDS011;10146;47.754;9.566;2023-04-05T08:40:01;6.70;;;5.70;;
19969;SDS011;10146;47.754;9.566;2023-04-05T08:42:48;5.78;;;5.22;;
19969;SDS011;10146;47.754;9.566;2023-04-05T08:45:21;5.90;;;5.13;;
19969;SDS011;10146;47.754;9.566;2023-04-05T08:47:49;6.32;;;5.10;;
19969;SDS011;10146;47.754;9.566;2023-04-05T08:50:17;6.55;;;5.43;;
19969;SDS011;10146;47.754;9.566;2023-04-05T08:52:44;9.00;;;5.65;;
19969;SDS011;10146;47.754;9.566;2023-04-05T08:55:14;5.05;;;4.55;;
19969;SDS011;10146;47.754;9.566;2023-04-05T08:57:43;7.25;;;4.72;;
19969;SDS011;10146;47.754;9.566;2023-04-05T09:00:13;5.85;;;5.03;;
19969;SDS011;10146;47.754;9.566;2023-04-05T09:02:41;6.28;;;5.20;;
19969;SDS011;10146;47.754;9.566;2023-04-05T09:05:09;6.70;;;5.03;;
19969;SDS011;10146;47.754;9.566;2023-04-05T09:07:35;6.63;;;5.38;;
19969;SDS011;10146;47.754;9.566;2023-04-05T09:10:02;6.93;;;5.10;;
19969;SDS011;10146;47.754;9.566;2023-04-05T09:12:30;6.20;;;5.00;;
19969;SDS011;10146;47.754;9.566;2023-04-05T09:14:57;6.13;;;5.10;;
19969;SDS011;10146;47.754;9.566;2023-04-05T09:17:25;6.32;;;5.18;;
19969;SDS011;10146;47.754;9.566;2023-04-05T09:19:52;5.93;;;5.32;;
19969;SDS011;10146;47.754;9.566;2023-04-05T09:22:17;6.25;;;4.80;;
19969;SDS011;10146;47.754;9.566;2023-04-05T09:24:43;6.05;;;4.97;;
19969;SDS011;10146;47.754;9.566;2023-04-05T09:27:14;4.93;;;4.47;;
19969;SDS011;10146;47.754;9.566;2023-04-05T09:29:42;5.15;;;4.40;;
19969;SDS011;10146;47.754;9.566;2023-04-05T09:32:09;5.65;;;5.05;;
19969;SDS011;10146;47.754;9.566;2023-04-05T09:34:36;5.40;;;4.90;;
19969;SDS011;10146;47.754;9.566;2023-04-05T09:37:03;5.70;;;4.47;;
19969;SDS011;10146;47.754;9.566;2023-04-05T09:39:46;5.32;;;4.40;;
19969;SDS011;10146;47.754;9.566;2023-04-05T09:42:17;6.88;;;4.90;;
19969;SDS011;10146;47.754;9.566;2023-04-05T09:44:50;5.70;;;4.38;;
19969;SDS011;10146;47.754;9.566;2023-04-05T09:47:27;5.13;;;4.35;;
19969;SDS011;10146;47.754;9.566;2023-04-05T09:49:58;5.35;;;4.80;;
19969;SDS011;10146;47.754;9.566;2023-04-05T09:52:28;4.45;;;4.05;;
19969;SDS011;10146;47.754;9.566;2023-04-05T09:54:58;6.20;;;4.47;;
19969;SDS011;10146;47.754;9.566;2023-04-05T09:57:25;4.68;;;4.28;;
19969;SDS011;10146;47.754;9.566;2023-04-05T09:59:52;6.30;;;4.40;;
19969;SDS011;10146;47.754;9.566;2023-04-05T10:02:18;5.20;;;4.53;;
19969;SDS011;10146;47.754;9.566;2023-04-05T10:04:45;5.80;;;4.50;;
19969;SDS011;10146;47.754;9.566;2023-04-05T10:07:12;5.45;;;4.95;;
19969;SDS011;10146;47.754;9.566;2023-04-05T10:09:44;5.30;;;4.80;;
19969;SDS011;10146;47.754;9.566;2023-04-05T10:12:12;4.80;;;4.32;;
19969;SDS011;10146;47.754;9.566;2023-04-05T10:14:45;6.13;;;5.00;;
19969;SDS011;10146;47.754;9.566;2023-04-05T10:17:27;5.35;;;4.72;;
19969;SDS011;10146;47.754;9.566;2023-04-05T10:20:10;5.13;;;4.60;;
19969;SDS011;10146;47.754;9.566;2023-04-05T10:27:52;5.70;;;4.70;;
19969;SDS011;10146;47.754;9.566;2023-04-05T10:30:23;5.07;;;4.40;;
19969;SDS011;10146;47.754;9.566;2023-04-05T10:35:48;4.82;;;4.43;;
19969;SDS011;10146;47.754;9.566;2023-04-05T10:38:24;5.53;;;5.03;;
19969;SDS011;10146;47.754;9.566;2023-04-05T10:40:53;5.57;;;4.85;;
19969;SDS011;10146;47.754;9.566;2023-04-05T10:43:22;5.88;;;4.82;;
19969;SDS011;10146;47.754;9.566;2023-04-05T10:45:51;6.25;;;5.30;;
19969;SDS011;10146;47.754;9.566;2023-04-05T10:50:59;6.47;;;5.72;;
19969;SDS011;10146;47.754;9.566;2023-04-05T10:53:27;6.13;;;5.20;;
19969;SDS011;10146;47.754;9.566;2023-04-05T10:55:54;5.30;;;4.82;;
19969;SDS011;10146;47.754;9.566;2023-04-05T10:58:23;5.95;;;5.35;;
19969;SDS011;10146;47.754;9.566;2023-04-05T11:00:50;5.50;;;4.93;;
19969;SDS011;10146;47.754;9.566;2023-04-05T11:08:54;5.55;;;5.05;;
19969;SDS011;10146;47.754;9.566;2023-04-05T11:11:23;7.40;;;5.60;;
19969;SDS011;10146;47.754;9.566;2023-04-05T11:13:59;5.90;;;5.40;;
19969;SDS011;10146;47.754;9.566;2023-04-05T11:16:37;6.32;;;5.63;;
19969;SDS011;10146;47.754;9.566;2023-04-05T11:19:03;7.63;;;5.50;;
19969;SDS011;10146;47.754;9.566;2023-04-05T11:21:28;6.20;;;5.40;;
19969;SDS011;10146;47.754;9.566;2023-04-05T11:23:59;6.00;;;5.40;;
19969;SDS011;10146;47.754;9.566;2023-04-05T11:26:52;6.97;;;5.25;;
19969;SDS011;10146;47.754;9.566;2023-04-05T11:32:13;5.93;;;5.32;;
19969;SDS011;10146;47.754;9.566;2023-04-05T11:34:42;7.15;;;5.65;;
19969;SDS011;10146;47.754;9.566;2023-04-05T11:37:08;5.22;;;4.72;;
19969;SDS011;10146;47.754;9.566;2023-04-05T11:39:34;6.82;;;5.78;;
19969;SDS011;10146;47.754;9.566;2023-04-05T11:42:04;6.00;;;5.13;;
19969;SDS011;10146;47.754;9.566;2023-04-05T11:47:05;8.18;;;5.95;;
19969;SDS011;10146;47.754;9.566;2023-04-05T11:49:32;7.30;;;5.18;;
19969;SDS011;10146;47.754;9.566;2023-04-05T11:52:00;5.55;;;5.05;;
19969;SDS011;10146;47.754;9.566;2023-04-05T11:54:38;6.40;;;5.75;;
19969;SDS011;10146;47.754;9.566;2023-04-05T11:57:10;5.50;;;4.88;;
19969;SDS011;10146;47.754;9.566;2023-04-05T11:59:42;7.25;;;5.60;;
19969;SDS011;10146;47.754;9.566;2023-04-05T12:02:08;5.57;;;5.07;;
19969;SDS011;10146;47.754;9.566;2023-04-05T12:04:34;7.13;;;5.18;;
19969;SDS011;10146;47.754;9.566;2023-04-05T12:07:07;7.13;;;5.70;;
19969;SDS011;10146;47.754;9.566;2023-04-05T12:12:32;6.20;;;5.25;;
19969;SDS011;10146;47.754;9.566;2023-04-05T12:15:03;5.32;;;4.82;;
19969;SDS011;10146;47.754;9.566;2023-04-05T12:20:22;6.57;;;5.07;;
19969;SDS011;10146;47.754;9.566;2023-04-05T12:22:53;5.45;;;4.95;;
19969;SDS011;10146;47.754;9.566;2023-04-05T12:25:20;5.45;;;4.95;;
19969;SDS011;10146;47.754;9.566;2023-04-05T12:27:46;5.75;;;5.22;;
19969;SDS011;10146;47.754;9.566;2023-04-05T12:30:15;6.55;;;5.18;;
19969;SDS011;10146;47.754;9.566;2023-04-05T12:35:21;5.43;;;4.93;;
19969;SDS011;10146;47.754;9.566;2023-04-05T12:37:56;5.68;;;5.15;;
19969;SDS011;10146;47.754;9.566;2023-04-05T12:40:23;5.90;;;5.30;;
19969;SDS011;10146;47.754;9.566;2023-04-05T12:42:49;6.38;;;4.90;;
19969;SDS011;10146;47.754;9.566;2023-04-05T12:45:15;6.75;;;5.43;;
19969;SDS011;10146;47.754;9.566;2023-04-05T12:47:49;6.05;;;5.55;;
19969;SDS011;10146;47.754;9.566;2023-04-05T12:50:28;6.03;;;5.53;;
19969;SDS011;10146;47.754;9.566;2023-04-05T12:53:04;5.97;;;5.38;;
19969;SDS011;10146;47.754;9.566;2023-04-05T12:55:30;5.47;;;4.97;;
19969;SDS011;10146;47.754;9.566;2023-04-05T12:57:58;5.95;;;5.45;;
19969;SDS011;10146;47.754;9.566;2023-04-05T13:00:26;5.90;;;5.40;;
19969;SDS011;10146;47.754;9.566;2023-04-05T13:02:54;6.80;;;5.35;;
19969;SDS011;10146;47.754;9.566;2023-04-05T13:05:25;5.90;;;5.15;;
19969;SDS011;10146;47.754;9.566;2023-04-05T13:07:52;5.65;;;5.15;;
19969;SDS011;10146;47.754;9.566;2023-04-05T13:10:18;8.18;;;5.63;;
19969;SDS011;10146;47.754;9.566;2023-04-05T13:12:45;6.13;;;5.00;;
19969;SDS011;10146;47.754;9.566;2023-04-05T13:15:11;5.65;;;5.07;;
19969;SDS011;10146;47.754;9.566;2023-04-05T13:17:38;5.57;;;5.07;;
19969;SDS011;10146;47.754;9.566;2023-04-05T13:20:05;6.18;;;5.22;;
19969;SDS011;10146;47.754;9.566;2023-04-05T13:22:31;5.93;;;5.30;;
19969;SDS011;10146;47.754;9.566;2023-04-05T13:24:57;5.78;;;5.22;;
19969;SDS011;10146;47.754;9.566;2023-04-05T13:27:22;6.05;;;5.10;;
19969;SDS011;10146;47.754;9.566;2023-04-05T13:29:48;5.68;;;5.18;;
19969;SDS011;10146;47.754;9.566;2023-04-05T13:32:13;5.97;;;5.38;;
19969;SDS011;10146;47.754;9.566;2023-04-05T13:34:39;6.07;;;5.47;;
19969;SDS011;10146;47.754;9.566;2023-04-05T13:37:05;6.53;;;5.45;;
19969;SDS011;10146;47.754;9.566;2023-04-05T13:39:30;6.43;;;5.80;;
19969;SDS011;10146;47.754;9.566;2023-04-05T13:41:56;7.03;;;5.72;;
19969;SDS011;10146;47.754;9.566;2023-04-05T13:44:22;5.57;;;4.90;;
19969;SDS011;10146;47.754;9.566;2023-04-05T13:46:47;6.80;;;5.78;;
19969;SDS011;10146;47.754;9.566;2023-04-05T13:49:13;5.97;;;5.38;;
19969;SDS011;10146;47.754;9.566;2023-04-05T13:51:39;5.57;;;5.00;;
19969;SDS011;10146;47.754;9.566;2023-04-05T13:54:08;5.47;;;4.95;;
19969;SDS011;10146;47.754;9.566;2023-04-05T13:56:38;7.63;;;5.95;;
19969;SDS011;10146;47.754;9.566;2023-04-05T13:59:04;6.20;;;5.70;;
19969;SDS011;10146;47.754;9.566;2023-04-05T14:01:29;6.05;;;5.32;;
19969;SDS011;10146;47.754;9.566;2023-04-05T14:03:57;5.72;;;5.22;;
19969;SDS011;10146;47.754;9.566;2023-04-05T14:06:22;5.85;;;5.35;;
19969;SDS011;10146;47.754;9.566;2023-04-05T14:08:48;7.82;;;5.40;;
19969;SDS011;10146;47.754;9.566;2023-04-05T14:11:20;6.90;;;6.00;;
19969;SDS011;10146;47.754;9.566;2023-04-05T14:13:46;5.93;;;5.32;;
19969;SDS011;10146;47.754;9.566;2023-04-05T14:16:12;5.75;;;5.25;;
19969;SDS011;10146;47.754;9.566;2023-04-05T14:18:38;5.45;;;5.05;;
19969;SDS011;10146;47.754;9.566;2023-04-05T14:21:04;5.78;;;5.25;;
19969;SDS011;10146;47.754;9.566;2023-04-05T14:23:30;6.28;;;5.78;;
19969;SDS011;10146;47.754;9.566;2023-04-05T14:25:55;5.90;;;5.32;;
19969;SDS011;10146;47.754;9.566;2023-04-05T14:28:21;6.00;;;5.47;;
19969;SDS011;10146;47.754;9.566;2023-04-05T14:30:47;6.20;;;5.60;;
19969;SDS011;10146;47.754;9.566;2023-04-05T14:33:13;6.22;;;5.60;;
19969;SDS011;10146;47.754;9.566;2023-04-05T14:35:40;6.03;;;5.43;;
19969;SDS011;10146;47.754;9.566;2023-04-05T14:38:06;5.65;;;5.07;;
19969;SDS011;10146;47.754;9.566;2023-04-05T14:40:31;5.70;;;5.20;;
19969;SDS011;10146;47.754;9.566;2023-04-05T14:42:57;6.47;;;5.40;;
19969;SDS011;10146;47.754;9.566;2023-04-05T14:45:23;6.25;;;4.90;;
19969;SDS011;10146;47.754;9.566;2023-04-05T14:47:51;5.30;;;4.80;;
19969;SDS011;10146;47.754;9.566;2023-04-05T14:50:17;5.30;;;4.80;;
19969;SDS011;10146;47.754;9.566;2023-04-05T14:52:43;6.25;;;5.38;;
19969;SDS011;10146;47.754;9.566;2023-04-05T14:55:12;5.00;;;4.50;;
19969;SDS011;10146;47.754;9.566;2023-04-05T14:57:41;5.22;;;4.75;;
19969;SDS011;10146;47.754;9.566;2023-04-05T15:00:07;4.70;;;4.25;;
19969;SDS011;10146;47.754;9.566;2023-04-05T15:02:34;4.63;;;4.22;;
19969;SDS011;10146;47.754;9.566;2023-04-05T15:05:01;4.50;;;4.20;;
19969;SDS011;10146;47.754;9.566;2023-04-05T15:07:28;5.25;;;4.80;;
19969;SDS011;10146;47.754;9.566;2023-04-05T15:09:54;4.63;;;4.22;;
19969;SDS011;10146;47.754;9.566;2023-04-05T15:12:19;5.25;;;4.75;;
19969;SDS011;10146;47.754;9.566;2023-04-05T15:14:45;4.82;;;4.40;;
19969;SDS011;10146;47.754;9.566;2023-04-05T15:17:12;4.85;;;4.45;;
19969;SDS011;10146;47.754;9.566;2023-04-05T15:19:38;4.53;;;4.22;;
19969;SDS011;10146;47.754;9.566;2023-04-05T15:22:04;4.47;;;4.18;;
19969;SDS011;10146;47.754;9.566;2023-04-05T15:24:30;5.07;;;4.30;;
19969;SDS011;10146;47.754;9.566;2023-04-05T15:26:56;4.95;;;4.53;;
19969;SDS011;10146;47.754;9.566;2023-04-05T15:29:29;4.35;;;3.95;;
19969;SDS011;10146;47.754;9.566;2023-04-05T15:31:55;4.95;;;4.50;;